Aviation Digital Data Service (ADDS)

Output produced by METARs form (1402 UTC 24 August 2019)
found at http://www.aviationweather.gov/metar/data/
 
METAR text: EDDP 241350Z 10010KT 050V170 CAVOK 28/12 Q1021 NOSIG
Conditions at: EDDP (LEIPZIG/SCHKEUDI, DE) observed 1350 UTC 24 August 2019
Temperature: 28.0°C (82°F)
Dewpoint: 12.0°C (54°F) [RH = 37%]
Pressure (altimeter): 30.15 inches Hg (1021.0 mb)
Winds: from the E (100 degrees) at 12 MPH (10 knots; 5.1 m/s)
Visibility: 6 or more miles (10+ km)
Ceiling: ceiling and visibility are OK
Clouds: unknown
Weather: no significant weather observed at this time

METAR text: EDDP 241320Z 10011KT 050V140 CAVOK 29/12 Q1022 NOSIG
Conditions at: EDDP (LEIPZIG/SCHKEUDI, DE) observed 1320 UTC 24 August 2019
Temperature: 29.0°C (84°F)
Dewpoint: 12.0°C (54°F) [RH = 35%]
Pressure (altimeter): 30.18 inches Hg (1022.0 mb)
Winds: from the E (100 degrees) at 13 MPH (11 knots; 5.7 m/s)
Visibility: 6 or more miles (10+ km)
Ceiling: ceiling and visibility are OK
Clouds: unknown
Weather: no significant weather observed at this time

METAR text: EDDP 241250Z 10010KT 070V130 CAVOK 28/11 Q1022 NOSIG
Conditions at: EDDP (LEIPZIG/SCHKEUDI, DE) observed 1250 UTC 24 August 2019
Temperature: 28.0°C (82°F)
Dewpoint: 11.0°C (52°F) [RH = 35%]
Pressure (altimeter): 30.18 inches Hg (1022.0 mb)
Winds: from the E (100 degrees) at 12 MPH (10 knots; 5.1 m/s)
Visibility: 6 or more miles (10+ km)
Ceiling: ceiling and visibility are OK
Clouds: unknown
Weather: no significant weather observed at this time

METAR text: EDDP 241220Z 09013KT 050V140 CAVOK 29/12 Q1022 NOSIG
Conditions at: EDDP (LEIPZIG/SCHKEUDI, DE) observed 1220 UTC 24 August 2019
Temperature: 29.0°C (84°F)
Dewpoint: 12.0°C (54°F) [RH = 35%]
Pressure (altimeter): 30.18 inches Hg (1022.0 mb)
Winds: from the E (90 degrees) at 15 MPH (13 knots; 6.7 m/s)
Visibility: 6 or more miles (10+ km)
Ceiling: ceiling and visibility are OK
Clouds: unknown
Weather: no significant weather observed at this time

METAR text: EDDP 241150Z 07010KT 010V130 CAVOK 28/12 Q1022 NOSIG
Conditions at: EDDP (LEIPZIG/SCHKEUDI, DE) observed 1150 UTC 24 August 2019
Temperature: 28.0°C (82°F)
Dewpoint: 12.0°C (54°F) [RH = 37%]
Pressure (altimeter): 30.18 inches Hg (1022.0 mb)
Winds: from the ENE (70 degrees) at 12 MPH (10 knots; 5.1 m/s)
Visibility: 6 or more miles (10+ km)
Ceiling: ceiling and visibility are OK
Clouds: unknown
Weather: no significant weather observed at this time

METAR text: EDDP 241120Z 07007KT CAVOK 28/12 Q1022 NOSIG
Conditions at: EDDP (LEIPZIG/SCHKEUDI, DE) observed 1120 UTC 24 August 2019
Temperature: 28.0°C (82°F)
Dewpoint: 12.0°C (54°F) [RH = 37%]
Pressure (altimeter): 30.18 inches Hg (1022.0 mb)
Winds: from the ENE (70 degrees) at 8 MPH (7 knots; 3.6 m/s)
Visibility: 6 or more miles (10+ km)
Ceiling: ceiling and visibility are OK
Clouds: unknown
Weather: no significant weather observed at this time

METAR text: EDDP 241050Z 07007KT 020V130 CAVOK 27/11 Q1023 NOSIG
Conditions at: EDDP (LEIPZIG/SCHKEUDI, DE) observed 1050 UTC 24 August 2019
Temperature: 27.0°C (81°F)
Dewpoint: 11.0°C (52°F) [RH = 37%]
Pressure (altimeter): 30.21 inches Hg (1023.0 mb)
Winds: from the ENE (70 degrees) at 8 MPH (7 knots; 3.6 m/s)
Visibility: 6 or more miles (10+ km)
Ceiling: ceiling and visibility are OK
Clouds: unknown
Weather: no significant weather observed at this time

METAR text: EDDP 241020Z 07008KT 020V130 CAVOK 27/13 Q1023 NOSIG
Conditions at: EDDP (LEIPZIG/SCHKEUDI, DE) observed 1020 UTC 24 August 2019
Temperature: 27.0°C (81°F)
Dewpoint: 13.0°C (55°F) [RH = 42%]
Pressure (altimeter): 30.21 inches Hg (1023.0 mb)
Winds: from the ENE (70 degrees) at 9 MPH (8 knots; 4.1 m/s)
Visibility: 6 or more miles (10+ km)
Ceiling: ceiling and visibility are OK
Clouds: unknown
Weather: no significant weather observed at this time

METAR text: EDDP 240950Z 06009KT 030V100 9999 FEW046 26/13 Q1023 NOSIG
Conditions at: EDDP (LEIPZIG/SCHKEUDI, DE) observed 0950 UTC 24 August 2019
Temperature: 26.0°C (79°F)
Dewpoint: 13.0°C (55°F) [RH = 45%]
Pressure (altimeter): 30.21 inches Hg (1023.0 mb)
Winds: from the ENE (60 degrees) at 10 MPH (9 knots; 4.6 m/s)
Visibility: 6 or more miles (10+ km)
Ceiling: at least 12,000 feet AGL
Clouds: few clouds at 4600 feet AGL
Weather: no significant weather observed at this time

METAR text: EDDP 240920Z 06008KT 010V100 CAVOK 25/14 Q1023 NOSIG
Conditions at: EDDP (LEIPZIG/SCHKEUDI, DE) observed 0920 UTC 24 August 2019
Temperature: 25.0°C (77°F)
Dewpoint: 14.0°C (57°F) [RH = 50%]
Pressure (altimeter): 30.21 inches Hg (1023.0 mb)
Winds: from the ENE (60 degrees) at 9 MPH (8 knots; 4.1 m/s)
Visibility: 6 or more miles (10+ km)
Ceiling: ceiling and visibility are OK
Clouds: unknown
Weather: no significant weather observed at this time

METAR text: EDDP 240850Z 05008KT 010V090 CAVOK 24/14 Q1024 NOSIG
Conditions at: EDDP (LEIPZIG/SCHKEUDI, DE) observed 0850 UTC 24 August 2019
Temperature: 24.0°C (75°F)
Dewpoint: 14.0°C (57°F) [RH = 54%]
Pressure (altimeter): 30.24 inches Hg (1024.0 mb)
Winds: from the NE (50 degrees) at 9 MPH (8 knots; 4.1 m/s)
Visibility: 6 or more miles (10+ km)
Ceiling: ceiling and visibility are OK
Clouds: unknown
Weather: no significant weather observed at this time

METAR text: EDDP 240820Z 09007KT 040V120 CAVOK 23/14 Q1024 NOSIG
Conditions at: EDDP (LEIPZIG/SCHKEUDI, DE) observed 0820 UTC 24 August 2019
Temperature: 23.0°C (73°F)
Dewpoint: 14.0°C (57°F) [RH = 57%]
Pressure (altimeter): 30.24 inches Hg (1024.0 mb)
Winds: from the E (90 degrees) at 8 MPH (7 knots; 3.6 m/s)
Visibility: 6 or more miles (10+ km)
Ceiling: ceiling and visibility are OK
Clouds: unknown
Weather: no significant weather observed at this time

METAR text: EDDP 240750Z 08006KT 050V120 CAVOK 21/13 Q1024 NOSIG
Conditions at: EDDP (LEIPZIG/SCHKEUDI, DE) observed 0750 UTC 24 August 2019
Temperature: 21.0°C (70°F)
Dewpoint: 13.0°C (55°F) [RH = 60%]
Pressure (altimeter): 30.24 inches Hg (1024.0 mb)
Winds: from the E (80 degrees) at 7 MPH (6 knots; 3.1 m/s)
Visibility: 6 or more miles (10+ km)
Ceiling: ceiling and visibility are OK
Clouds: unknown
Weather: no significant weather observed at this time

METAR text: EDDP 240720Z 08006KT 050V120 CAVOK 20/13 Q1024 NOSIG
Conditions at: EDDP (LEIPZIG/SCHKEUDI, DE) observed 0720 UTC 24 August 2019
Temperature: 20.0°C (68°F)
Dewpoint: 13.0°C (55°F) [RH = 64%]
Pressure (altimeter): 30.24 inches Hg (1024.0 mb)
Winds: from the E (80 degrees) at 7 MPH (6 knots; 3.1 m/s)
Visibility: 6 or more miles (10+ km)
Ceiling: ceiling and visibility are OK
Clouds: unknown
Weather: no significant weather observed at this time

METAR text: EDDP 240650Z 06005KT 020V090 CAVOK 18/13 Q1024 NOSIG
Conditions at: EDDP (LEIPZIG/SCHKEUDI, DE) observed 0650 UTC 24 August 2019
Temperature: 18.0°C (64°F)
Dewpoint: 13.0°C (55°F) [RH = 73%]
Pressure (altimeter): 30.24 inches Hg (1024.0 mb)
Winds: from the ENE (60 degrees) at 6 MPH (5 knots; 2.6 m/s)
Visibility: 6 or more miles (10+ km)
Ceiling: ceiling and visibility are OK
Clouds: unknown
Weather: no significant weather observed at this time

METAR text: EDDP 240620Z 05005KT CAVOK 17/12 Q1024 NOSIG
Conditions at: EDDP (LEIPZIG/SCHKEUDI, DE) observed 0620 UTC 24 August 2019
Temperature: 17.0°C (63°F)
Dewpoint: 12.0°C (54°F) [RH = 72%]
Pressure (altimeter): 30.24 inches Hg (1024.0 mb)
Winds: from the NE (50 degrees) at 6 MPH (5 knots; 2.6 m/s)
Visibility: 6 or more miles (10+ km)
Ceiling: ceiling and visibility are OK
Clouds: unknown
Weather: no significant weather observed at this time

METAR text: EDDP 240550Z 06005KT CAVOK 16/12 Q1024 NOSIG
Conditions at: EDDP (LEIPZIG/SCHKEUDI, DE) observed 0550 UTC 24 August 2019
Temperature: 16.0°C (61°F)
Dewpoint: 12.0°C (54°F) [RH = 77%]
Pressure (altimeter): 30.24 inches Hg (1024.0 mb)
Winds: from the ENE (60 degrees) at 6 MPH (5 knots; 2.6 m/s)
Visibility: 6 or more miles (10+ km)
Ceiling: ceiling and visibility are OK
Clouds: unknown
Weather: no significant weather observed at this time

METAR text: EDDP 240520Z 07005KT CAVOK 15/11 Q1024 NOSIG
Conditions at: EDDP (LEIPZIG/SCHKEUDI, DE) observed 0520 UTC 24 August 2019
Temperature: 15.0°C (59°F)
Dewpoint: 11.0°C (52°F) [RH = 77%]
Pressure (altimeter): 30.24 inches Hg (1024.0 mb)
Winds: from the ENE (70 degrees) at 6 MPH (5 knots; 2.6 m/s)
Visibility: 6 or more miles (10+ km)
Ceiling: ceiling and visibility are OK
Clouds: unknown
Weather: no significant weather observed at this time

METAR text: EDDP 240450Z 08005KT 060V120 CAVOK 14/11 Q1024 NOSIG
Conditions at: EDDP (LEIPZIG/SCHKEUDI, DE) observed 0450 UTC 24 August 2019
Temperature: 14.0°C (57°F)
Dewpoint: 11.0°C (52°F) [RH = 82%]
Pressure (altimeter): 30.24 inches Hg (1024.0 mb)
Winds: from the E (80 degrees) at 6 MPH (5 knots; 2.6 m/s)
Visibility: 6 or more miles (10+ km)
Ceiling: ceiling and visibility are OK
Clouds: unknown
Weather: no significant weather observed at this time

METAR text: EDDP 240420Z 08007KT CAVOK 14/11 Q1024 NOSIG
Conditions at: EDDP (LEIPZIG/SCHKEUDI, DE) observed 0420 UTC 24 August 2019
Temperature: 14.0°C (57°F)
Dewpoint: 11.0°C (52°F) [RH = 82%]
Pressure (altimeter): 30.24 inches Hg (1024.0 mb)
Winds: from the E (80 degrees) at 8 MPH (7 knots; 3.6 m/s)
Visibility: 6 or more miles (10+ km)
Ceiling: ceiling and visibility are OK
Clouds: unknown
Weather: no significant weather observed at this time

METAR text: EDDP 240350Z 06007KT CAVOK 13/11 Q1023 NOSIG
Conditions at: EDDP (LEIPZIG/SCHKEUDI, DE) observed 0350 UTC 24 August 2019
Temperature: 13.0°C (55°F)
Dewpoint: 11.0°C (52°F) [RH = 88%]
Pressure (altimeter): 30.21 inches Hg (1023.0 mb)
Winds: from the ENE (60 degrees) at 8 MPH (7 knots; 3.6 m/s)
Visibility: 6 or more miles (10+ km)
Ceiling: ceiling and visibility are OK
Clouds: unknown
Weather: no significant weather observed at this time

METAR text: EDDP 240320Z 06007KT CAVOK 14/10 Q1023 NOSIG
Conditions at: EDDP (LEIPZIG/SCHKEUDI, DE) observed 0320 UTC 24 August 2019
Temperature: 14.0°C (57°F)
Dewpoint: 10.0°C (50°F) [RH = 77%]
Pressure (altimeter): 30.21 inches Hg (1023.0 mb)
Winds: from the ENE (60 degrees) at 8 MPH (7 knots; 3.6 m/s)
Visibility: 6 or more miles (10+ km)
Ceiling: ceiling and visibility are OK
Clouds: unknown
Weather: no significant weather observed at this time

METAR text: EDDP 240250Z 07007KT CAVOK 15/11 Q1024 NOSIG
Conditions at: EDDP (LEIPZIG/SCHKEUDI, DE) observed 0250 UTC 24 August 2019
Temperature: 15.0°C (59°F)
Dewpoint: 11.0°C (52°F) [RH = 77%]
Pressure (altimeter): 30.24 inches Hg (1024.0 mb)
Winds: from the ENE (70 degrees) at 8 MPH (7 knots; 3.6 m/s)
Visibility: 6 or more miles (10+ km)
Ceiling: ceiling and visibility are OK
Clouds: unknown
Weather: no significant weather observed at this time

METAR text: EDDP 240220Z 06007KT CAVOK 14/10 Q1024 NOSIG
Conditions at: EDDP (LEIPZIG/SCHKEUDI, DE) observed 0220 UTC 24 August 2019
Temperature: 14.0°C (57°F)
Dewpoint: 10.0°C (50°F) [RH = 77%]
Pressure (altimeter): 30.24 inches Hg (1024.0 mb)
Winds: from the ENE (60 degrees) at 8 MPH (7 knots; 3.6 m/s)
Visibility: 6 or more miles (10+ km)
Ceiling: ceiling and visibility are OK
Clouds: unknown
Weather: no significant weather observed at this time

METAR text: EDDP 240150Z 06008KT CAVOK 14/10 Q1024 NOSIG
Conditions at: EDDP (LEIPZIG/SCHKEUDI, DE) observed 0150 UTC 24 August 2019
Temperature: 14.0°C (57°F)
Dewpoint: 10.0°C (50°F) [RH = 77%]
Pressure (altimeter): 30.24 inches Hg (1024.0 mb)
Winds: from the ENE (60 degrees) at 9 MPH (8 knots; 4.1 m/s)
Visibility: 6 or more miles (10+ km)
Ceiling: ceiling and visibility are OK
Clouds: unknown
Weather: no significant weather observed at this time

METAR text: EDDP 240120Z 07008KT CAVOK 17/11 Q1024 NOSIG
Conditions at: EDDP (LEIPZIG/SCHKEUDI, DE) observed 0120 UTC 24 August 2019
Temperature: 17.0°C (63°F)
Dewpoint: 11.0°C (52°F) [RH = 68%]
Pressure (altimeter): 30.24 inches Hg (1024.0 mb)
Winds: from the ENE (70 degrees) at 9 MPH (8 knots; 4.1 m/s)
Visibility: 6 or more miles (10+ km)
Ceiling: ceiling and visibility are OK
Clouds: unknown
Weather: no significant weather observed at this time

METAR text: EDDP 240050Z 07008KT CAVOK 17/11 Q1024 NOSIG
Conditions at: EDDP (LEIPZIG/SCHKEUDI, DE) observed 0050 UTC 24 August 2019
Temperature: 17.0°C (63°F)
Dewpoint: 11.0°C (52°F) [RH = 68%]
Pressure (altimeter): 30.24 inches Hg (1024.0 mb)
Winds: from the ENE (70 degrees) at 9 MPH (8 knots; 4.1 m/s)
Visibility: 6 or more miles (10+ km)
Ceiling: ceiling and visibility are OK
Clouds: unknown
Weather: no significant weather observed at this time

METAR text: EDDP 240020Z 07007KT CAVOK 17/11 Q1024 NOSIG
Conditions at: EDDP (LEIPZIG/SCHKEUDI, DE) observed 0020 UTC 24 August 2019
Temperature: 17.0°C (63°F)
Dewpoint: 11.0°C (52°F) [RH = 68%]
Pressure (altimeter): 30.24 inches Hg (1024.0 mb)
Winds: from the ENE (70 degrees) at 8 MPH (7 knots; 3.6 m/s)
Visibility: 6 or more miles (10+ km)
Ceiling: ceiling and visibility are OK
Clouds: unknown
Weather: no significant weather observed at this time

METAR text: EDDP 232350Z 07007KT CAVOK 18/11 Q1024 NOSIG
Conditions at: EDDP (LEIPZIG/SCHKEUDI, DE) observed 2350 UTC 23 August 2019
Temperature: 18.0°C (64°F)
Dewpoint: 11.0°C (52°F) [RH = 64%]
Pressure (altimeter): 30.24 inches Hg (1024.0 mb)
Winds: from the ENE (70 degrees) at 8 MPH (7 knots; 3.6 m/s)
Visibility: 6 or more miles (10+ km)
Ceiling: ceiling and visibility are OK
Clouds: unknown
Weather: no significant weather observed at this time

METAR text: EDDP 232320Z 05008KT CAVOK 17/11 Q1024 NOSIG
Conditions at: EDDP (LEIPZIG/SCHKEUDI, DE) observed 2320 UTC 23 August 2019
Temperature: 17.0°C (63°F)
Dewpoint: 11.0°C (52°F) [RH = 68%]
Pressure (altimeter): 30.24 inches Hg (1024.0 mb)
Winds: from the NE (50 degrees) at 9 MPH (8 knots; 4.1 m/s)
Visibility: 6 or more miles (10+ km)
Ceiling: ceiling and visibility are OK
Clouds: unknown
Weather: no significant weather observed at this time

METAR text: EDDP 232250Z 05005KT CAVOK 17/10 Q1024 NOSIG
Conditions at: EDDP (LEIPZIG/SCHKEUDI, DE) observed 2250 UTC 23 August 2019
Temperature: 17.0°C (63°F)
Dewpoint: 10.0°C (50°F) [RH = 63%]
Pressure (altimeter): 30.24 inches Hg (1024.0 mb)
Winds: from the NE (50 degrees) at 6 MPH (5 knots; 2.6 m/s)
Visibility: 6 or more miles (10+ km)
Ceiling: ceiling and visibility are OK
Clouds: unknown
Weather: no significant weather observed at this time

METAR text: EDDP 232220Z 11005KT CAVOK 19/11 Q1024 NOSIG
Conditions at: EDDP (LEIPZIG/SCHKEUDI, DE) observed 2220 UTC 23 August 2019
Temperature: 19.0°C (66°F)
Dewpoint: 11.0°C (52°F) [RH = 60%]
Pressure (altimeter): 30.24 inches Hg (1024.0 mb)
Winds: from the ESE (110 degrees) at 6 MPH (5 knots; 2.6 m/s)
Visibility: 6 or more miles (10+ km)
Ceiling: ceiling and visibility are OK
Clouds: unknown
Weather: no significant weather observed at this time

METAR text: EDDP 232150Z 10006KT CAVOK 19/11 Q1024 NOSIG
Conditions at: EDDP (LEIPZIG/SCHKEUDI, DE) observed 2150 UTC 23 August 2019
Temperature: 19.0°C (66°F)
Dewpoint: 11.0°C (52°F) [RH = 60%]
Pressure (altimeter): 30.24 inches Hg (1024.0 mb)
Winds: from the E (100 degrees) at 7 MPH (6 knots; 3.1 m/s)
Visibility: 6 or more miles (10+ km)
Ceiling: ceiling and visibility are OK
Clouds: unknown
Weather: no significant weather observed at this time

METAR text: EDDP 232120Z 10007KT CAVOK 20/10 Q1024 NOSIG
Conditions at: EDDP (LEIPZIG/SCHKEUDI, DE) observed 2120 UTC 23 August 2019
Temperature: 20.0°C (68°F)
Dewpoint: 10.0°C (50°F) [RH = 53%]
Pressure (altimeter): 30.24 inches Hg (1024.0 mb)
Winds: from the E (100 degrees) at 8 MPH (7 knots; 3.6 m/s)
Visibility: 6 or more miles (10+ km)
Ceiling: ceiling and visibility are OK
Clouds: unknown
Weather: no significant weather observed at this time

METAR text: EDDP 232050Z 10006KT CAVOK 21/10 Q1024 NOSIG
Conditions at: EDDP (LEIPZIG/SCHKEUDI, DE) observed 2050 UTC 23 August 2019
Temperature: 21.0°C (70°F)
Dewpoint: 10.0°C (50°F) [RH = 49%]
Pressure (altimeter): 30.24 inches Hg (1024.0 mb)
Winds: from the E (100 degrees) at 7 MPH (6 knots; 3.1 m/s)
Visibility: 6 or more miles (10+ km)
Ceiling: ceiling and visibility are OK
Clouds: unknown
Weather: no significant weather observed at this time

METAR text: EDDP 232020Z 10006KT CAVOK 21/09 Q1024 NOSIG
Conditions at: EDDP (LEIPZIG/SCHKEUDI, DE) observed 2020 UTC 23 August 2019
Temperature: 21.0°C (70°F)
Dewpoint: 9.0°C (48°F) [RH = 46%]
Pressure (altimeter): 30.24 inches Hg (1024.0 mb)
Winds: from the E (100 degrees) at 7 MPH (6 knots; 3.1 m/s)
Visibility: 6 or more miles (10+ km)
Ceiling: ceiling and visibility are OK
Clouds: unknown
Weather: no significant weather observed at this time

METAR text: EDDP 231950Z 11006KT CAVOK 21/08 Q1024 NOSIG
Conditions at: EDDP (LEIPZIG/SCHKEUDI, DE) observed 1950 UTC 23 August 2019
Temperature: 21.0°C (70°F)
Dewpoint: 8.0°C (46°F) [RH = 43%]
Pressure (altimeter): 30.24 inches Hg (1024.0 mb)
Winds: from the ESE (110 degrees) at 7 MPH (6 knots; 3.1 m/s)
Visibility: 6 or more miles (10+ km)
Ceiling: ceiling and visibility are OK
Clouds: unknown
Weather: no significant weather observed at this time

METAR text: EDDP 231920Z 10007KT CAVOK 22/08 Q1024 NOSIG
Conditions at: EDDP (LEIPZIG/SCHKEUDI, DE) observed 1920 UTC 23 August 2019
Temperature: 22.0°C (72°F)
Dewpoint: 8.0°C (46°F) [RH = 41%]
Pressure (altimeter): 30.24 inches Hg (1024.0 mb)
Winds: from the E (100 degrees) at 8 MPH (7 knots; 3.6 m/s)
Visibility: 6 or more miles (10+ km)
Ceiling: ceiling and visibility are OK
Clouds: unknown
Weather: no significant weather observed at this time

METAR text: EDDP 231850Z 09005KT CAVOK 24/08 Q1024 NOSIG
Conditions at: EDDP (LEIPZIG/SCHKEUDI, DE) observed 1850 UTC 23 August 2019
Temperature: 24.0°C (75°F)
Dewpoint: 8.0°C (46°F) [RH = 36%]
Pressure (altimeter): 30.24 inches Hg (1024.0 mb)
Winds: from the E (90 degrees) at 6 MPH (5 knots; 2.6 m/s)
Visibility: 6 or more miles (10+ km)
Ceiling: ceiling and visibility are OK
Clouds: unknown
Weather: no significant weather observed at this time

METAR text: EDDP 231820Z 08005KT CAVOK 25/07 Q1024 NOSIG
Conditions at: EDDP (LEIPZIG/SCHKEUDI, DE) observed 1820 UTC 23 August 2019
Temperature: 25.0°C (77°F)
Dewpoint: 7.0°C (45°F) [RH = 32%]
Pressure (altimeter): 30.24 inches Hg (1024.0 mb)
Winds: from the E (80 degrees) at 6 MPH (5 knots; 2.6 m/s)
Visibility: 6 or more miles (10+ km)
Ceiling: ceiling and visibility are OK
Clouds: unknown
Weather: no significant weather observed at this time

METAR text: EDDP 231750Z 07005KT CAVOK 25/07 Q1024 NOSIG
Conditions at: EDDP (LEIPZIG/SCHKEUDI, DE) observed 1750 UTC 23 August 2019
Temperature: 25.0°C (77°F)
Dewpoint: 7.0°C (45°F) [RH = 32%]
Pressure (altimeter): 30.24 inches Hg (1024.0 mb)
Winds: from the ENE (70 degrees) at 6 MPH (5 knots; 2.6 m/s)
Visibility: 6 or more miles (10+ km)
Ceiling: ceiling and visibility are OK
Clouds: unknown
Weather: no significant weather observed at this time

METAR text: EDDP 231720Z 07007KT CAVOK 27/07 Q1024 NOSIG
Conditions at: EDDP (LEIPZIG/SCHKEUDI, DE) observed 1720 UTC 23 August 2019
Temperature: 27.0°C (81°F)
Dewpoint: 7.0°C (45°F) [RH = 28%]
Pressure (altimeter): 30.24 inches Hg (1024.0 mb)
Winds: from the ENE (70 degrees) at 8 MPH (7 knots; 3.6 m/s)
Visibility: 6 or more miles (10+ km)
Ceiling: ceiling and visibility are OK
Clouds: unknown
Weather: no significant weather observed at this time

METAR text: EDDP 231650Z 07006KT 040V120 CAVOK 28/07 Q1024 NOSIG
Conditions at: EDDP (LEIPZIG/SCHKEUDI, DE) observed 1650 UTC 23 August 2019
Temperature: 28.0°C (82°F)
Dewpoint: 7.0°C (45°F) [RH = 27%]
Pressure (altimeter): 30.24 inches Hg (1024.0 mb)
Winds: from the ENE (70 degrees) at 7 MPH (6 knots; 3.1 m/s)
Visibility: 6 or more miles (10+ km)
Ceiling: ceiling and visibility are OK
Clouds: unknown
Weather: no significant weather observed at this time

METAR text: EDDP 231620Z 05006KT 010V080 CAVOK 28/07 Q1024 NOSIG
Conditions at: EDDP (LEIPZIG/SCHKEUDI, DE) observed 1620 UTC 23 August 2019
Temperature: 28.0°C (82°F)
Dewpoint: 7.0°C (45°F) [RH = 27%]
Pressure (altimeter): 30.24 inches Hg (1024.0 mb)
Winds: from the NE (50 degrees) at 7 MPH (6 knots; 3.1 m/s)
Visibility: 6 or more miles (10+ km)
Ceiling: ceiling and visibility are OK
Clouds: unknown
Weather: no significant weather observed at this time

METAR text: EDDP 231550Z VRB04KT CAVOK 28/07 Q1024 NOSIG
Conditions at: EDDP (LEIPZIG/SCHKEUDI, DE) observed 1550 UTC 23 August 2019
Temperature: 28.0°C (82°F)
Dewpoint: 7.0°C (45°F) [RH = 27%]
Pressure (altimeter): 30.24 inches Hg (1024.0 mb)
Winds: variable direction winds at 5 MPH (4 knots; 2.1 m/s)
Visibility: 6 or more miles (10+ km)
Ceiling: ceiling and visibility are OK
Clouds: unknown
Weather: no significant weather observed at this time

METAR text: EDDP 231520Z 04006KT 360V100 CAVOK 29/07 Q1024 NOSIG
Conditions at: EDDP (LEIPZIG/SCHKEUDI, DE) observed 1520 UTC 23 August 2019
Temperature: 29.0°C (84°F)
Dewpoint: 7.0°C (45°F) [RH = 25%]
Pressure (altimeter): 30.24 inches Hg (1024.0 mb)
Winds: from the NE (40 degrees) at 7 MPH (6 knots; 3.1 m/s)
Visibility: 6 or more miles (10+ km)
Ceiling: ceiling and visibility are OK
Clouds: unknown
Weather: no significant weather observed at this time

METAR text: EDDP 231450Z 04007KT 350V130 CAVOK 28/06 Q1024 NOSIG
Conditions at: EDDP (LEIPZIG/SCHKEUDI, DE) observed 1450 UTC 23 August 2019
Temperature: 28.0°C (82°F)
Dewpoint: 6.0°C (43°F) [RH = 25%]
Pressure (altimeter): 30.24 inches Hg (1024.0 mb)
Winds: from the NE (40 degrees) at 8 MPH (7 knots; 3.6 m/s)
Visibility: 6 or more miles (10+ km)
Ceiling: ceiling and visibility are OK
Clouds: unknown
Weather: no significant weather observed at this time

METAR text: EDDP 231420Z 04006KT 330V100 CAVOK 28/07 Q1024 NOSIG
Conditions at: EDDP (LEIPZIG/SCHKEUDI, DE) observed 1420 UTC 23 August 2019
Temperature: 28.0°C (82°F)
Dewpoint: 7.0°C (45°F) [RH = 27%]
Pressure (altimeter): 30.24 inches Hg (1024.0 mb)
Winds: from the NE (40 degrees) at 7 MPH (6 knots; 3.1 m/s)
Visibility: 6 or more miles (10+ km)
Ceiling: ceiling and visibility are OK
Clouds: unknown
Weather: no significant weather observed at this time

METAR text: EDDP 231350Z 04004KT 310V090 CAVOK 28/07 Q1025 NOSIG
Conditions at: EDDP (LEIPZIG/SCHKEUDI, DE) observed 1350 UTC 23 August 2019
Temperature: 28.0°C (82°F)
Dewpoint: 7.0°C (45°F) [RH = 27%]
Pressure (altimeter): 30.27 inches Hg (1025.0 mb)
Winds: from the NE (40 degrees) at 5 MPH (4 knots; 2.1 m/s)
Visibility: 6 or more miles (10+ km)
Ceiling: ceiling and visibility are OK
Clouds: unknown
Weather: no significant weather observed at this time

METAR text: EDDP 231320Z VRB06KT CAVOK 27/06 Q1025 NOSIG
Conditions at: EDDP (LEIPZIG/SCHKEUDI, DE) observed 1320 UTC 23 August 2019
Temperature: 27.0°C (81°F)
Dewpoint: 6.0°C (43°F) [RH = 26%]
Pressure (altimeter): 30.27 inches Hg (1025.0 mb)
Winds: variable direction winds at 7 MPH (6 knots; 3.1 m/s)
Visibility: 6 or more miles (10+ km)
Ceiling: ceiling and visibility are OK
Clouds: unknown
Weather: no significant weather observed at this time

METAR text: EDDP 231250Z 03006KT 330V140 CAVOK 28/07 Q1025 NOSIG
Conditions at: EDDP (LEIPZIG/SCHKEUDI, DE) observed 1250 UTC 23 August 2019
Temperature: 28.0°C (82°F)
Dewpoint: 7.0°C (45°F) [RH = 27%]
Pressure (altimeter): 30.27 inches Hg (1025.0 mb)
Winds: from the NNE (30 degrees) at 7 MPH (6 knots; 3.1 m/s)
Visibility: 6 or more miles (10+ km)
Ceiling: ceiling and visibility are OK
Clouds: unknown
Weather: no significant weather observed at this time

METAR text: EDDP 231220Z 07006KT 030V140 CAVOK 27/08 Q1025 NOSIG
Conditions at: EDDP (LEIPZIG/SCHKEUDI, DE) observed 1220 UTC 23 August 2019
Temperature: 27.0°C (81°F)
Dewpoint: 8.0°C (46°F) [RH = 30%]
Pressure (altimeter): 30.27 inches Hg (1025.0 mb)
Winds: from the ENE (70 degrees) at 7 MPH (6 knots; 3.1 m/s)
Visibility: 6 or more miles (10+ km)
Ceiling: ceiling and visibility are OK
Clouds: unknown
Weather: no significant weather observed at this time

METAR text: EDDP 231150Z VRB06KT CAVOK 27/07 Q1025 NOSIG
Conditions at: EDDP (LEIPZIG/SCHKEUDI, DE) observed 1150 UTC 23 August 2019
Temperature: 27.0°C (81°F)
Dewpoint: 7.0°C (45°F) [RH = 28%]
Pressure (altimeter): 30.27 inches Hg (1025.0 mb)
Winds: variable direction winds at 7 MPH (6 knots; 3.1 m/s)
Visibility: 6 or more miles (10+ km)
Ceiling: ceiling and visibility are OK
Clouds: unknown
Weather: no significant weather observed at this time

METAR text: EDDP 231120Z 09006KT 030V150 CAVOK 26/08 Q1026 NOSIG
Conditions at: EDDP (LEIPZIG/SCHKEUDI, DE) observed 1120 UTC 23 August 2019
Temperature: 26.0°C (79°F)
Dewpoint: 8.0°C (46°F) [RH = 32%]
Pressure (altimeter): 30.30 inches Hg (1026.0 mb)
Winds: from the E (90 degrees) at 7 MPH (6 knots; 3.1 m/s)
Visibility: 6 or more miles (10+ km)
Ceiling: ceiling and visibility are OK
Clouds: unknown
Weather: no significant weather observed at this time

METAR text: EDDP 231050Z 09007KT 010V130 CAVOK 25/08 Q1026 NOSIG
Conditions at: EDDP (LEIPZIG/SCHKEUDI, DE) observed 1050 UTC 23 August 2019
Temperature: 25.0°C (77°F)
Dewpoint: 8.0°C (46°F) [RH = 34%]
Pressure (altimeter): 30.30 inches Hg (1026.0 mb)
Winds: from the E (90 degrees) at 8 MPH (7 knots; 3.6 m/s)
Visibility: 6 or more miles (10+ km)
Ceiling: ceiling and visibility are OK
Clouds: unknown
Weather: no significant weather observed at this time

METAR text: EDDP 231020Z 07007KT 020V140 CAVOK 25/08 Q1026 NOSIG
Conditions at: EDDP (LEIPZIG/SCHKEUDI, DE) observed 1020 UTC 23 August 2019
Temperature: 25.0°C (77°F)
Dewpoint: 8.0°C (46°F) [RH = 34%]
Pressure (altimeter): 30.30 inches Hg (1026.0 mb)
Winds: from the ENE (70 degrees) at 8 MPH (7 knots; 3.6 m/s)
Visibility: 6 or more miles (10+ km)
Ceiling: ceiling and visibility are OK
Clouds: unknown
Weather: no significant weather observed at this time

METAR text: EDDP 230950Z 06007KT 340V090 CAVOK 25/08 Q1027 NOSIG
Conditions at: EDDP (LEIPZIG/SCHKEUDI, DE) observed 0950 UTC 23 August 2019
Temperature: 25.0°C (77°F)
Dewpoint: 8.0°C (46°F) [RH = 34%]
Pressure (altimeter): 30.32 inches Hg (1027.0 mb)
Winds: from the ENE (60 degrees) at 8 MPH (7 knots; 3.6 m/s)
Visibility: 6 or more miles (10+ km)
Ceiling: ceiling and visibility are OK
Clouds: unknown
Weather: no significant weather observed at this time

METAR text: EDDP 230920Z 06006KT 360V120 CAVOK 24/09 Q1027 NOSIG
Conditions at: EDDP (LEIPZIG/SCHKEUDI, DE) observed 0920 UTC 23 August 2019
Temperature: 24.0°C (75°F)
Dewpoint: 9.0°C (48°F) [RH = 38%]
Pressure (altimeter): 30.32 inches Hg (1027.0 mb)
Winds: from the ENE (60 degrees) at 7 MPH (6 knots; 3.1 m/s)
Visibility: 6 or more miles (10+ km)
Ceiling: ceiling and visibility are OK
Clouds: unknown
Weather: no significant weather observed at this time

METAR text: EDDP 230850Z VRB06KT CAVOK 23/11 Q1027 NOSIG
Conditions at: EDDP (LEIPZIG/SCHKEUDI, DE) observed 0850 UTC 23 August 2019
Temperature: 23.0°C (73°F)
Dewpoint: 11.0°C (52°F) [RH = 47%]
Pressure (altimeter): 30.32 inches Hg (1027.0 mb)
Winds: variable direction winds at 7 MPH (6 knots; 3.1 m/s)
Visibility: 6 or more miles (10+ km)
Ceiling: ceiling and visibility are OK
Clouds: unknown
Weather: no significant weather observed at this time

METAR text: EDDP 230820Z 10004KT 070V140 CAVOK 22/11 Q1027 NOSIG
Conditions at: EDDP (LEIPZIG/SCHKEUDI, DE) observed 0820 UTC 23 August 2019
Temperature: 22.0°C (72°F)
Dewpoint: 11.0°C (52°F) [RH = 50%]
Pressure (altimeter): 30.32 inches Hg (1027.0 mb)
Winds: from the E (100 degrees) at 5 MPH (4 knots; 2.1 m/s)
Visibility: 6 or more miles (10+ km)
Ceiling: ceiling and visibility are OK
Clouds: unknown
Weather: no significant weather observed at this time

METAR text: EDDP 230750Z 34001KT CAVOK 21/11 Q1027 NOSIG
Conditions at: EDDP (LEIPZIG/SCHKEUDI, DE) observed 0750 UTC 23 August 2019
Temperature: 21.0°C (70°F)
Dewpoint: 11.0°C (52°F) [RH = 53%]
Pressure (altimeter): 30.32 inches Hg (1027.0 mb)
Winds: from the NNW (340 degrees) at 1 MPH (1 knots; 0.5 m/s)
Visibility: 6 or more miles (10+ km)
Ceiling: ceiling and visibility are OK
Clouds: unknown
Weather: no significant weather observed at this time

METAR text: EDDP 230720Z 16003KT 070V220 CAVOK 20/11 Q1027 NOSIG
Conditions at: EDDP (LEIPZIG/SCHKEUDI, DE) observed 0720 UTC 23 August 2019
Temperature: 20.0°C (68°F)
Dewpoint: 11.0°C (52°F) [RH = 56%]
Pressure (altimeter): 30.32 inches Hg (1027.0 mb)
Winds: from the SSE (160 degrees) at 3 MPH (3 knots; 1.5 m/s)
Visibility: 6 or more miles (10+ km)
Ceiling: ceiling and visibility are OK
Clouds: unknown
Weather: no significant weather observed at this time

METAR text: EDDP 230650Z VRB02KT CAVOK 18/11 Q1027 NOSIG
Conditions at: EDDP (LEIPZIG/SCHKEUDI, DE) observed 0650 UTC 23 August 2019
Temperature: 18.0°C (64°F)
Dewpoint: 11.0°C (52°F) [RH = 64%]
Pressure (altimeter): 30.32 inches Hg (1027.0 mb)
Winds: variable direction winds at 2 MPH (2 knots; 1.0 m/s)
Visibility: 6 or more miles (10+ km)
Ceiling: ceiling and visibility are OK
Clouds: unknown
Weather: no significant weather observed at this time

METAR text: EDDP 230620Z 17004KT 130V190 CAVOK 17/11 Q1027 NOSIG
Conditions at: EDDP (LEIPZIG/SCHKEUDI, DE) observed 0620 UTC 23 August 2019
Temperature: 17.0°C (63°F)
Dewpoint: 11.0°C (52°F) [RH = 68%]
Pressure (altimeter): 30.32 inches Hg (1027.0 mb)
Winds: from the S (170 degrees) at 5 MPH (4 knots; 2.1 m/s)
Visibility: 6 or more miles (10+ km)
Ceiling: ceiling and visibility are OK
Clouds: unknown
Weather: no significant weather observed at this time

METAR text: EDDP 230550Z 17004KT CAVOK 15/11 Q1026 NOSIG
Conditions at: EDDP (LEIPZIG/SCHKEUDI, DE) observed 0550 UTC 23 August 2019
Temperature: 15.0°C (59°F)
Dewpoint: 11.0°C (52°F) [RH = 77%]
Pressure (altimeter): 30.30 inches Hg (1026.0 mb)
Winds: from the S (170 degrees) at 5 MPH (4 knots; 2.1 m/s)
Visibility: 6 or more miles (10+ km)
Ceiling: ceiling and visibility are OK
Clouds: unknown
Weather: no significant weather observed at this time

METAR text: EDDP 230520Z 16004KT CAVOK 14/12 Q1026 NOSIG
Conditions at: EDDP (LEIPZIG/SCHKEUDI, DE) observed 0520 UTC 23 August 2019
Temperature: 14.0°C (57°F)
Dewpoint: 12.0°C (54°F) [RH = 88%]
Pressure (altimeter): 30.30 inches Hg (1026.0 mb)
Winds: from the SSE (160 degrees) at 5 MPH (4 knots; 2.1 m/s)
Visibility: 6 or more miles (10+ km)
Ceiling: ceiling and visibility are OK
Clouds: unknown
Weather: no significant weather observed at this time

METAR text: EDDP 230450Z 15005KT CAVOK 13/11 Q1026 NOSIG
Conditions at: EDDP (LEIPZIG/SCHKEUDI, DE) observed 0450 UTC 23 August 2019
Temperature: 13.0°C (55°F)
Dewpoint: 11.0°C (52°F) [RH = 88%]
Pressure (altimeter): 30.30 inches Hg (1026.0 mb)
Winds: from the SSE (150 degrees) at 6 MPH (5 knots; 2.6 m/s)
Visibility: 6 or more miles (10+ km)
Ceiling: ceiling and visibility are OK
Clouds: unknown
Weather: no significant weather observed at this time

METAR text: EDDP 230420Z 15005KT CAVOK 13/10 Q1026 NOSIG
Conditions at: EDDP (LEIPZIG/SCHKEUDI, DE) observed 0420 UTC 23 August 2019
Temperature: 13.0°C (55°F)
Dewpoint: 10.0°C (50°F) [RH = 82%]
Pressure (altimeter): 30.30 inches Hg (1026.0 mb)
Winds: from the SSE (150 degrees) at 6 MPH (5 knots; 2.6 m/s)
Visibility: 6 or more miles (10+ km)
Ceiling: ceiling and visibility are OK
Clouds: unknown
Weather: no significant weather observed at this time

METAR text: EDDP 230350Z 15005KT CAVOK 12/10 Q1026 NOSIG
Conditions at: EDDP (LEIPZIG/SCHKEUDI, DE) observed 0350 UTC 23 August 2019
Temperature: 12.0°C (54°F)
Dewpoint: 10.0°C (50°F) [RH = 88%]
Pressure (altimeter): 30.30 inches Hg (1026.0 mb)
Winds: from the SSE (150 degrees) at 6 MPH (5 knots; 2.6 m/s)
Visibility: 6 or more miles (10+ km)
Ceiling: ceiling and visibility are OK
Clouds: unknown
Weather: no significant weather observed at this time

METAR text: EDDP 230320Z 14005KT CAVOK 13/10 Q1026 NOSIG
Conditions at: EDDP (LEIPZIG/SCHKEUDI, DE) observed 0320 UTC 23 August 2019
Temperature: 13.0°C (55°F)
Dewpoint: 10.0°C (50°F) [RH = 82%]
Pressure (altimeter): 30.30 inches Hg (1026.0 mb)
Winds: from the SE (140 degrees) at 6 MPH (5 knots; 2.6 m/s)
Visibility: 6 or more miles (10+ km)
Ceiling: ceiling and visibility are OK
Clouds: unknown
Weather: no significant weather observed at this time

METAR text: EDDP 230250Z 14004KT CAVOK 13/10 Q1026 NOSIG
Conditions at: EDDP (LEIPZIG/SCHKEUDI, DE) observed 0250 UTC 23 August 2019
Temperature: 13.0°C (55°F)
Dewpoint: 10.0°C (50°F) [RH = 82%]
Pressure (altimeter): 30.30 inches Hg (1026.0 mb)
Winds: from the SE (140 degrees) at 5 MPH (4 knots; 2.1 m/s)
Visibility: 6 or more miles (10+ km)
Ceiling: ceiling and visibility are OK
Clouds: unknown
Weather: no significant weather observed at this time

METAR text: EDDP 230220Z 13005KT CAVOK 13/11 Q1026 NOSIG
Conditions at: EDDP (LEIPZIG/SCHKEUDI, DE) observed 0220 UTC 23 August 2019
Temperature: 13.0°C (55°F)
Dewpoint: 11.0°C (52°F) [RH = 88%]
Pressure (altimeter): 30.30 inches Hg (1026.0 mb)
Winds: from the SE (130 degrees) at 6 MPH (5 knots; 2.6 m/s)
Visibility: 6 or more miles (10+ km)
Ceiling: ceiling and visibility are OK
Clouds: unknown
Weather: no significant weather observed at this time

Forecast for: EDDP (LEIPZIG/SCHKEUDI, DE)
Text: TAF EDDP 241100Z 2412/2512 08011KT CAVOK
Forecast period: 1200 to 1700 UTC 24 August 2019
Forecast type: FROM: standard forecast or significant change
Winds: from the E (80 degrees) at 13 MPH (11 knots; 5.7 m/s)
Visibility: 6 or more miles 10+ km)
Ceiling: unknown
Clouds: missing
Weather: NSW  (no significant weather)
Text: BECMG 2417/2420 08006KT
Forecast period: 1700 UTC 24 August 2019 to 1200 UTC 25 August 2019
Forecast type: BECOMING: Conditions expected to become as follows by 2000 UTC 24 August 2019
Winds: from the E (80 degrees) at 7 MPH (6 knots; 3.1 m/s)
Visibility: 6 or more miles 10+ km)
Ceiling: unknown
Clouds: missing
Weather: NSW  (no significant weather)
Text: PROB30
Forecast period: 0300 to 0800 UTC 25 August 2019
Forecast type: TEMPORARY: The following changes expected for less than half the time period
Visibility: missing
Ceiling: 2000 feet AGL
Clouds: broken clouds at 2000 feet AGL
Weather: SHRA  (rain showers)